Time;durP1;ratioP1;P1;durP2;ratioP2;P2;SDS_P1;SDS_P2;PMS_P1;PMS_P2;Temp;Humidity;BMP_temperature;BMP_pressure;BME280_temperature;BME280_humidity;BME280_pressure;Samples;Min_cycle;Max_cycle;Signal;HPM_P1;HPM_P2
2022/08/05 00:01:21;;;;;;;2.58;1.75;;;28.80;56.60;;;;;;5094353;28;20039;-82
2022/08/05 00:04:33;;;;;;;2.70;2.00;;;28.70;57.10;;;;;;5094650;28;20071;-82
2022/08/05 00:06:59;;;;;;;3.25;2.25;;;28.70;57.30;;;;;;5093104;28;20104;-82
2022/08/05 00:09:24;;;;;;;5.30;1.80;;;28.70;57.20;;;;;;5077033;28;20381;-81
2022/08/05 00:11:50;;;;;;;4.82;2.00;;;28.70;58.10;;;;;;5089207;28;20028;-82
2022/08/05 00:14:16;;;;;;;4.10;2.13;;;28.70;57.80;;;;;;5071767;28;20047;-82
2022/08/05 00:16:42;;;;;;;2.88;1.90;;;28.60;58.00;;;;;;5080324;28;20481;-83
2022/08/05 00:19:08;;;;;;;3.75;1.92;;;28.50;58.00;;;;;;5094058;28;20035;-82
2022/08/05 00:21:33;;;;;;;2.38;1.95;;;28.50;58.40;;;;;;5079592;28;20055;-81
2022/08/05 00:23:59;;;;;;;2.50;1.80;;;28.40;58.60;;;;;;5095056;28;20058;-82
2022/08/05 00:26:25;;;;;;;4.75;1.63;;;28.50;58.90;;;;;;5089016;28;20051;-82
2022/08/05 00:28:51;;;;;;;2.60;1.90;;;28.50;59.40;;;;;;5084700;28;20028;-81
2022/08/05 00:31:17;;;;;;;2.63;1.60;;;28.50;59.80;;;;;;5082600;28;20074;-80
2022/08/05 00:33:42;;;;;;;3.53;1.63;;;28.50;60.00;;;;;;5092449;28;20099;-80
2022/08/05 00:36:08;;;;;;;5.15;1.92;;;28.50;60.20;;;;;;5079033;28;20016;-83
2022/08/05 00:38:34;;;;;;;2.80;1.73;;;28.50;60.50;;;;;;5087605;28;20025;-83
2022/08/05 00:40:59;;;;;;;14.52;2.00;;;28.50;60.80;;;;;;5075467;28;20031;-83
2022/08/05 00:43:25;;;;;;;8.98;1.90;;;28.50;61.20;;;;;;5075572;28;20128;-81
2022/08/05 00:45:51;;;;;;;5.38;1.85;;;28.50;61.40;;;;;;5093192;28;20462;-82
2022/08/05 00:48:19;;;;;;;9.00;1.95;;;28.40;61.40;;;;;;5096149;28;20480;-81
2022/08/05 00:50:47;;;;;;;6.72;1.95;;;28.40;61.60;;;;;;5086273;28;20032;-83
2022/08/05 00:53:15;;;;;;;7.75;1.77;;;28.40;61.70;;;;;;5087557;28;20032;-83
2022/08/05 00:55:41;;;;;;;5.90;1.42;;;28.40;61.80;;;;;;5077787;28;20037;-84
2022/08/05 00:58:07;;;;;;;10.75;1.73;;;28.40;61.80;;;;;;5091405;28;20059;-79
2022/08/05 01:00:33;;;;;;;5.93;1.60;;;28.40;62.10;;;;;;5081265;28;20047;-81
2022/08/05 01:02:58;;;;;;;5.95;1.75;;;28.40;62.10;;;;;;5084118;28;20056;-84
2022/08/05 01:05:25;;;;;;;7.05;1.75;;;28.40;62.40;;;;;;5088984;28;20090;-83
2022/08/05 01:07:51;;;;;;;10.07;1.67;;;28.40;62.60;;;;;;5093561;28;20028;-83
2022/08/05 01:10:21;;;;;;;5.43;1.80;;;28.40;62.80;;;;;;5080330;28;20024;-83
2022/08/05 01:12:53;;;;;;;4.68;1.60;;;28.30;62.90;;;;;;5095605;28;20036;-80
2022/08/05 01:15:23;;;;;;;6.93;1.80;;;28.20;63.20;;;;;;5093859;28;20384;-87
2022/08/05 01:17:53;;;;;;;3.87;1.70;;;28.20;63.50;;;;;;5078002;28;20496;-81
2022/08/05 01:20:46;;;;;;;3.58;1.52;;;28.20;63.80;;;;;;5089081;28;20265;-83
2022/08/05 01:23:48;;;;;;;5.65;1.83;;;28.10;64.00;;;;;;5087351;28;20465;-83
2022/08/05 01:26:27;;;;;;;4.32;1.90;;;28.00;64.30;;;;;;5079226;28;20024;-83
2022/08/05 01:28:58;;;;;;;5.50;1.65;;;28.00;64.40;;;;;;5084538;28;20028;-83
2022/08/05 01:31:39;;;;;;;8.15;2.15;;;28.00;64.40;;;;;;5088317;28;20456;-83
2022/08/05 01:34:14;;;;;;;3.72;1.77;;;28.00;64.50;;;;;;5078349;28;20020;-82
2022/08/05 01:36:45;;;;;;;7.53;1.92;;;27.90;64.70;;;;;;5085896;28;20028;-82
2022/08/05 01:39:12;;;;;;;;;;;28.00;64.70;;;;;;5074630;28;20050;-85
2022/08/05 01:41:39;;;;;;;9.50;1.83;;;28.00;65.40;;;;;;5074008;28;19904;-82
2022/08/05 01:44:06;;;;;;;2.92;2.10;;;28.00;65.20;;;;;;5090369;28;20160;-82
2022/08/05 01:46:34;;;;;;;4.78;2.00;;;27.90;65.70;;;;;;5081844;28;20059;-82
2022/08/05 01:49:01;;;;;;;7.45;2.20;;;27.90;66.00;;;;;;5094366;28;20031;-83
2022/08/05 01:51:29;;;;;;;4.45;2.17;;;27.90;66.80;;;;;;5093880;28;20039;-83
2022/08/05 01:53:56;;;;;;;4.15;2.10;;;27.90;66.40;;;;;;5092619;28;20488;-84
2022/08/05 01:56:24;;;;;;;6.65;2.30;;;27.90;66.60;;;;;;5079047;28;20024;-80
2022/08/05 01:58:51;;;;;;;6.30;2.22;;;27.90;66.80;;;;;;5083741;28;20020;-81
2022/08/05 02:01:19;;;;;;;5.88;2.17;;;27.80;66.90;;;;;;5086779;28;20024;-80
2022/08/05 02:03:47;;;;;;;8.63;2.47;;;27.80;67.10;;;;;;5076890;28;20107;-80
2022/08/05 02:06:13;;;;;;;4.53;2.25;;;27.70;67.30;;;;;;5090574;28;20032;-80
2022/08/05 02:08:39;;;;;;;5.68;2.30;;;27.70;67.60;;;;;;5081337;28;20473;-81
2022/08/05 02:11:10;;;;;;;6.43;2.30;;;27.70;67.70;;;;;;5082805;28;20052;-81
2022/08/05 02:14:03;;;;;;;4.55;2.47;;;27.70;67.70;;;;;;5073657;28;20037;-81
2022/08/05 02:16:39;;;;;;;4.47;2.67;;;27.70;68.10;;;;;;5073346;28;20043;-81
2022/08/05 02:19:19;;;;;;;6.72;2.05;;;27.70;68.10;;;;;;5092220;28;20032;-81
2022/08/05 02:21:52;;;;;;;7.43;2.38;;;27.70;68.00;;;;;;5094073;28;20028;-82
2022/08/05 02:24:21;;;;;;;4.45;2.33;;;27.70;68.40;;;;;;5088796;28;20492;-86
2022/08/05 02:26:51;;;;;;;5.13;2.33;;;27.70;68.70;;;;;;5074276;28;20028;-81
2022/08/05 02:29:21;;;;;;;6.75;2.67;;;27.70;68.90;;;;;;5086629;28;20084;-81
2022/08/05 02:31:49;;;;;;;5.38;2.53;;;27.70;69.10;;;;;;5076030;28;20044;-82
2022/08/05 02:34:16;;;;;;;6.22;2.80;;;27.70;69.10;;;;;;5088032;28;20025;-81
2022/08/05 02:36:48;;;;;;;11.85;2.65;;;27.60;69.20;;;;;;5080808;28;20074;-81
2022/08/05 02:39:17;;;;;;;11.63;3.45;;;27.60;69.50;;;;;;5080033;28;20029;-81
2022/08/05 02:41:46;;;;;;;4.22;2.50;;;27.60;69.80;;;;;;5087691;28;20043;-80
2022/08/05 02:44:13;;;;;;;4.63;2.05;;;27.50;69.80;;;;;;5088514;28;20040;-81
2022/08/05 02:46:41;;;;;;;3.70;2.00;;;27.50;70.00;;;;;;5080804;28;20078;-81
2022/08/05 02:49:08;;;;;;;5.35;2.60;;;27.50;70.00;;;;;;5092941;28;20107;-84
2022/08/05 02:51:36;;;;;;;6.78;2.40;;;27.50;70.10;;;;;;5092522;28;20032;-81
2022/08/05 02:54:03;;;;;;;6.78;2.72;;;27.50;70.20;;;;;;5089607;28;20048;-82
2022/08/05 02:56:29;;;;;;;5.72;2.75;;;27.50;70.40;;;;;;5079953;28;20028;-81
2022/08/05 02:58:56;;;;;;;4.20;2.30;;;27.50;70.40;;;;;;5082427;28;20085;-82
2022/08/05 03:01:23;;;;;;;7.18;2.67;;;27.50;70.60;;;;;;5085991;28;20028;-83
2022/08/05 03:03:56;;;;;;;8.15;2.53;;;27.40;70.90;;;;;;5076100;28;20103;-82
2022/08/05 03:06:22;;;;;;;4.40;2.40;;;27.40;71.10;;;;;;5092600;28;20040;-82
2022/08/05 03:08:49;;;;;;;5.32;2.05;;;27.40;71.10;;;;;;5083650;28;20028;-82
2022/08/05 03:11:19;;;;;;;4.50;2.58;;;27.30;71.30;;;;;;5085282;28;20027;-82
2022/08/05 03:13:45;;;;;;;4.03;1.80;;;27.30;71.10;;;;;;5075738;28;20047;-82
2022/08/05 03:16:11;;;;;;;4.93;2.40;;;27.30;71.30;;;;;;5087989;28;20025;-81
2022/08/05 03:18:37;;;;;;;4.50;2.13;;;27.30;71.40;;;;;;5086489;28;20050;-81
2022/08/05 03:21:03;;;;;;;7.47;2.63;;;27.30;71.40;;;;;;5093688;28;20028;-82
2022/08/05 03:23:28;;;;;;;6.43;2.40;;;27.20;71.60;;;;;;5076943;28;20078;-82
2022/08/05 03:25:54;;;;;;;5.10;2.33;;;27.20;71.80;;;;;;5089363;28;20028;-82
2022/08/05 03:28:20;;;;;;;3.65;2.20;;;27.20;71.90;;;;;;5078182;28;20536;-81
2022/08/05 03:30:48;;;;;;;6.15;3.53;;;27.30;72.00;;;;;;5083086;28;20025;-81
2022/08/05 03:33:15;;;;;;;7.22;2.72;;;27.20;72.00;;;;;;5084943;28;20052;-83
2022/08/05 03:35:40;;;;;;;6.70;2.53;;;27.20;72.00;;;;;;5091697;28;20086;-89
2022/08/05 03:38:06;;;;;;;5.63;2.67;;;27.20;72.70;;;;;;5075935;28;20449;-83
2022/08/05 03:40:32;;;;;;;6.32;2.60;;;27.10;73.70;;;;;;5085189;28;20025;-83
2022/08/05 03:42:57;;;;;;;7.32;3.25;;;27.00;74.10;;;;;;5073487;28;20580;-84
2022/08/05 03:45:23;;;;;;;6.85;3.30;;;27.00;74.40;;;;;;5086810;28;20480;-82
2022/08/05 03:47:50;;;;;;;5.10;2.85;;;26.90;75.00;;;;;;5094091;28;20488;-82
2022/08/05 03:50:15;;;;;;;6.75;2.75;;;26.90;75.20;;;;;;5094651;28;20085;-82
2022/08/05 03:53:37;;;;;;;9.90;3.00;;;26.90;75.80;;;;;;5094238;28;20028;-82
2022/08/05 03:56:10;;;;;;;6.28;2.67;;;26.90;78.60;;;;;;4988429;28;20048;-81
2022/08/05 03:58:37;;;;;;;4.57;2.90;;;26.80;80.90;;;;;;5086914;28;20032;-81
2022/08/05 04:01:06;;;;;;;10.40;3.40;;;26.80;82.90;;;;;;5077016;28;20166;-80
2022/08/05 04:03:36;;;;;;;4.28;2.67;;;26.70;81.80;;;;;;5077583;28;20504;-82
2022/08/05 04:06:03;;;;;;;5.30;2.88;;;26.70;81.30;;;;;;5078307;28;20032;-83
2022/08/05 04:08:54;;;;;;;7.78;3.20;;;26.80;81.50;;;;;;5078453;28;20055;-83
2022/08/05 04:21:34;;;;;;;11.60;3.05;;;26.30;83.50;;;;;;5075714;28;20058;-81
2022/08/05 04:24:00;;;;;;;5.53;2.90;;;26.30;83.10;;;;;;5093573;28;20062;-81
2022/08/05 04:26:25;;;;;;;8.32;3.15;;;26.30;83.50;;;;;;5082703;28;20028;-83
2022/08/05 04:28:51;;;;;;;6.03;2.80;;;26.40;82.90;;;;;;5085985;28;20561;-83
2022/08/05 04:31:17;;;;;;;6.25;2.70;;;26.40;83.60;;;;;;5088778;28;20024;-80
2022/08/05 04:33:43;;;;;;;3.33;2.45;;;26.30;83.70;;;;;;5077837;28;20107;-80
2022/08/05 04:36:09;;;;;;;6.07;2.50;;;26.20;84.20;;;;;;5091212;28;20081;-82
2022/08/05 04:38:36;;;;;;;7.07;2.58;;;26.20;83.50;;;;;;5082286;28;20465;-82
2022/08/05 04:41:01;;;;;;;8.77;2.00;;;26.20;82.50;;;;;;5095507;28;20020;-82
2022/08/05 04:43:27;;;;;;;5.20;2.10;;;26.20;80.80;;;;;;5095273;28;20030;-83
2022/08/05 04:45:52;;;;;;;5.50;1.88;;;26.20;80.20;;;;;;5076380;28;20170;-80
2022/08/05 04:48:18;;;;;;;3.58;1.90;;;26.10;79.60;;;;;;5087004;28;20031;-83
2022/08/05 04:50:46;;;;;;;3.13;1.80;;;26.10;78.40;;;;;;5086452;28;20035;-83
2022/08/05 04:53:14;;;;;;;3.55;1.85;;;26.10;77.70;;;;;;5087731;28;20361;-83
2022/08/05 04:55:40;;;;;;;4.32;1.50;;;26.10;77.60;;;;;;5078945;28;20092;-83
2022/08/05 04:58:10;;;;;;;3.55;1.60;;;26.10;76.90;;;;;;5079743;28;20021;-83
2022/08/05 05:00:37;;;;;;;6.88;3.00;;;26.10;76.80;;;;;;5087090;28;20035;-82
2022/08/05 05:03:03;;;;;;;2.75;2.05;;;26.10;76.60;;;;;;5086515;28;20032;-82
2022/08/05 05:05:29;;;;;;;2.58;1.50;;;26.10;76.50;;;;;;5079025;28;20086;-82
2022/08/05 05:08:15;;;;;;;2.80;1.63;;;26.10;76.60;;;;;;5091561;28;20029;-83
2022/08/05 05:10:43;;;;;;;3.17;1.48;;;26.20;76.80;;;;;;5082423;28;20036;-82
2022/08/05 05:13:14;;;;;;;1.45;1.25;;;26.20;76.50;;;;;;5082680;28;20037;-84
2022/08/05 05:15:40;;;;;;;4.83;1.53;;;26.20;76.40;;;;;;5090806;28;20036;-83
2022/08/05 05:18:07;;;;;;;3.03;1.92;;;26.20;76.50;;;;;;5085080;28;20453;-83
2022/08/05 05:20:33;;;;;;;2.92;2.33;;;26.20;76.30;;;;;;5094741;28;20051;-83
2022/08/05 05:23:00;;;;;;;5.55;2.00;;;26.20;76.40;;;;;;5094932;28;20039;-83
2022/08/05 05:25:27;;;;;;;3.03;1.77;;;26.30;76.60;;;;;;5080838;28;20381;-83
2022/08/05 05:27:52;;;;;;;2.00;1.60;;;26.30;76.30;;;;;;5093023;28;20027;-81
2022/08/05 05:30:19;;;;;;;2.45;1.60;;;26.30;75.60;;;;;;5089177;28;20036;-80
2022/08/05 05:32:44;;;;;;;2.88;1.50;;;26.30;75.50;;;;;;5082747;28;20185;-80
2022/08/05 05:35:10;;;;;;;2.95;1.33;;;26.40;74.80;;;;;;5082711;28;20057;-83
2022/08/05 05:38:06;;;;;;;5.53;1.77;;;26.40;74.20;;;;;;5073928;28;20024;-81
2022/08/05 05:40:32;;;;;;;3.10;1.30;;;26.40;73.80;;;;;;5061575;28;20109;-81
2022/08/05 05:42:58;;;;;;;5.05;1.50;;;26.40;73.90;;;;;;5084944;28;20473;-83
2022/08/05 05:45:24;;;;;;;7.05;1.60;;;26.40;73.80;;;;;;5079362;28;20048;-83
2022/08/05 05:47:50;;;;;;;1.75;1.27;;;26.40;73.70;;;;;;5093312;28;20082;-82
2022/08/05 05:50:18;;;;;;;3.50;1.42;;;26.40;73.60;;;;;;5090499;28;20021;-83
2022/08/05 05:52:46;;;;;;;2.80;1.30;;;26.50;73.60;;;;;;5082167;28;20054;-81
2022/08/05 05:55:13;;;;;;;4.80;1.38;;;26.50;73.50;;;;;;5080877;28;20119;-83
2022/08/05 05:57:41;;;;;;;4.05;1.85;;;26.50;73.20;;;;;;5073256;28;20335;-83
2022/08/05 06:00:15;;;;;;;1.13;1.02;;;26.50;73.30;;;;;;5078556;28;20415;-82
2022/08/05 06:02:42;;;;;;;2.88;1.38;;;26.50;73.20;;;;;;5085730;28;20412;-83
2022/08/05 06:05:09;;;;;;;4.25;1.48;;;26.40;73.00;;;;;;5086040;28;20032;-83
2022/08/05 06:07:35;;;;;;;3.28;1.50;;;26.40;73.10;;;;;;5078414;28;20327;-82
2022/08/05 06:10:01;;;;;;;3.55;1.67;;;26.40;73.10;;;;;;5091475;28;20124;-83
2022/08/05 06:12:27;;;;;;;2.30;1.33;;;26.40;73.10;;;;;;5079354;28;20123;-83
2022/08/05 06:14:52;;;;;;;5.43;1.30;;;26.40;73.20;;;;;;5083615;28;20111;-82
2022/08/05 06:17:18;;;;;;;5.97;1.52;;;26.30;73.30;;;;;;5085894;28;20024;-81
2022/08/05 06:19:43;;;;;;;2.58;1.50;;;26.50;73.10;;;;;;5093339;28;20035;-83
2022/08/05 06:22:09;;;;;;;4.40;2.05;;;26.50;73.00;;;;;;5090799;28;20032;-83
2022/08/05 06:24:39;;;;;;;3.35;1.80;;;26.40;72.90;;;;;;5072998;28;20493;-83
2022/08/05 06:27:05;;;;;;;3.50;1.70;;;26.40;72.80;;;;;;5085249;28;20492;-83
2022/08/05 06:29:31;;;;;;;4.20;1.45;;;26.40;72.90;;;;;;5077720;28;20025;-83
2022/08/05 06:31:56;;;;;;;5.70;2.30;;;26.40;72.90;;;;;;5090778;28;20056;-82
2022/08/05 06:34:22;;;;;;;5.68;2.88;;;26.30;73.00;;;;;;5086754;28;20443;-80
2022/08/05 06:36:48;;;;;;;3.20;1.70;;;26.30;73.30;;;;;;5082091;28;20028;-82
2022/08/05 06:39:13;;;;;;;5.13;1.50;;;26.30;73.20;;;;;;5080218;28;20028;-81
2022/08/05 06:41:39;;;;;;;5.13;1.60;;;26.30;73.50;;;;;;5087697;28;20097;-81
2022/08/05 06:44:05;;;;;;;5.22;2.10;;;26.30;73.60;;;;;;5090122;28;20064;-81
2022/08/05 06:46:30;;;;;;;6.07;1.70;;;26.30;73.70;;;;;;5079090;28;20020;-81
2022/08/05 06:48:57;;;;;;;2.53;1.60;;;26.50;73.40;;;;;;5090244;28;20498;-82
2022/08/05 06:51:23;;;;;;;4.40;1.50;;;26.60;72.90;;;;;;5092793;28;20047;-82
2022/08/05 06:53:48;;;;;;;1.75;1.30;;;26.70;72.40;;;;;;5093010;28;20032;-82
2022/08/05 06:56:14;;;;;;;2.15;1.50;;;26.70;72.50;;;;;;5088039;28;20028;-82
2022/08/05 06:58:40;;;;;;;3.78;1.40;;;26.80;72.50;;;;;;5080355;28;20165;-82
2022/08/05 07:01:06;;;;;;;4.13;1.60;;;26.80;72.30;;;;;;5081155;28;20052;-82
2022/08/05 07:03:32;;;;;;;5.28;1.50;;;26.80;71.30;;;;;;5071948;28;20071;-81
2022/08/05 07:05:58;;;;;;;1.90;1.52;;;26.80;71.60;;;;;;5091780;28;20024;-82
2022/08/05 07:08:24;;;;;;;2.03;1.52;;;26.80;71.70;;;;;;5087512;28;20020;-82
2022/08/05 07:10:50;;;;;;;3.10;1.92;;;26.80;71.50;;;;;;5081945;28;20025;-81
2022/08/05 07:18:44;;;;;;;2.78;1.50;;;26.70;71.20;;;;;;5088739;28;20070;-81
2022/08/05 07:21:10;;;;;;;4.47;1.50;;;26.70;69.60;;;;;;5079829;28;20025;-81
2022/08/05 07:23:36;;;;;;;2.67;1.55;;;26.70;70.50;;;;;;5087852;28;20484;-80
2022/08/05 07:26:03;;;;;;;2.35;1.20;;;26.70;70.50;;;;;;5075759;28;20027;-81
2022/08/05 07:28:28;;;;;;;2.08;1.17;;;26.70;70.70;;;;;;5086355;28;20488;-84
2022/08/05 07:30:54;;;;;;;1.90;1.42;;;26.80;70.30;;;;;;5082412;28;20032;-82
2022/08/05 07:33:20;;;;;;;3.78;1.38;;;26.90;70.00;;;;;;5077774;28;20055;-89
2022/08/05 07:35:46;;;;;;;1.70;1.20;;;27.00;69.60;;;;;;5088831;28;20028;-80
2022/08/05 07:38:12;;;;;;;2.53;1.45;;;26.90;69.60;;;;;;5075682;28;20157;-78
2022/08/05 07:40:38;;;;;;;1.77;1.50;;;26.90;69.50;;;;;;5084616;28;20055;-78
2022/08/05 07:43:04;;;;;;;3.50;1.40;;;27.00;69.10;;;;;;5079912;28;20037;-78
2022/08/05 07:45:29;;;;;;;3.60;1.20;;;27.10;68.90;;;;;;5086256;28;20036;-81
2022/08/05 07:47:55;;;;;;;2.67;1.30;;;27.30;68.50;;;;;;5091927;28;20365;-79
2022/08/05 07:50:21;;;;;;;2.45;1.30;;;27.40;68.00;;;;;;5091745;28;20028;-84
2022/08/05 07:52:46;;;;;;;1.60;1.25;;;27.50;67.60;;;;;;5091884;28;20032;-80
2022/08/05 07:55:12;;;;;;;1.88;1.48;;;27.50;67.20;;;;;;5092357;28;20032;-80
2022/08/05 07:57:37;;;;;;;3.63;1.50;;;27.50;67.40;;;;;;5091790;28;20032;-80
2022/08/05 08:00:05;;;;;;;1.90;1.25;;;27.60;67.40;;;;;;5072319;28;20059;-79
2022/08/05 08:02:30;;;;;;;4.68;1.42;;;27.70;67.20;;;;;;5071791;28;20181;-80
2022/08/05 08:04:58;;;;;;;2.40;1.52;;;27.70;67.40;;;;;;5072698;28;20044;-80
2022/08/05 08:07:24;;;;;;;2.17;1.40;;;27.70;67.50;;;;;;5072120;28;20106;-83
2022/08/05 08:09:50;;;;;;;1.23;1.13;;;27.70;67.00;;;;;;5072111;28;20020;-80
2022/08/05 08:12:16;;;;;;;2.67;1.60;;;27.60;66.70;;;;;;5072049;28;20075;-80
2022/08/05 08:14:42;;;;;;;2.50;1.40;;;27.70;66.80;;;;;;5079603;28;20051;-80
2022/08/05 08:17:09;;;;;;;2.40;1.30;;;27.90;67.60;;;;;;5081094;28;20063;-83
2022/08/05 08:19:39;;;;;;;1.65;1.30;;;28.00;66.50;;;;;;5091412;28;20032;-83
2022/08/05 08:22:07;;;;;;;3.30;1.20;;;28.10;66.30;;;;;;5072281;28;20428;-83
2022/08/05 08:24:33;;;;;;;2.60;1.42;;;28.20;65.70;;;;;;5072976;28;20315;-86
2022/08/05 08:26:58;;;;;;;2.40;1.20;;;28.30;65.30;;;;;;5072615;28;20111;-84
2022/08/05 08:29:24;;;;;;;1.88;1.17;;;28.40;65.00;;;;;;5071433;28;20048;-79
2022/08/05 08:31:51;;;;;;;2.45;1.13;;;28.50;64.10;;;;;;5090077;28;20048;-78
2022/08/05 08:34:22;;;;;;;1.60;1.48;;;28.50;64.10;;;;;;5074855;28;20088;-77
2022/08/05 08:36:47;;;;;;;;;;;28.50;64.30;;;;;;5082666;28;20033;-78
2022/08/05 08:39:13;;;;;;;2.33;1.40;;;28.50;64.60;;;;;;5085252;28;19908;-77
2022/08/05 08:41:43;;;;;;;3.17;1.50;;;28.50;64.50;;;;;;5094614;28;20024;-78
2022/08/05 08:44:13;;;;;;;3.03;1.45;;;28.60;64.30;;;;;;5079807;28;20533;-78
2022/08/05 08:46:40;;;;;;;2.30;1.30;;;28.60;63.90;;;;;;5086097;28;20460;-77
2022/08/05 08:49:06;;;;;;;2.80;1.40;;;28.60;63.10;;;;;;5093840;28;20609;-77
2022/08/05 08:51:33;;;;;;;3.33;1.60;;;28.70;63.20;;;;;;5094890;28;20132;-77
2022/08/05 08:54:00;;;;;;;2.55;1.25;;;28.70;63.10;;;;;;5077305;28;20130;-77
2022/08/05 08:56:26;;;;;;;2.38;1.17;;;28.80;62.80;;;;;;5087339;28;20028;-77
2022/08/05 08:58:52;;;;;;;2.15;1.17;;;28.90;62.70;;;;;;5083776;28;20020;-78
2022/08/05 09:01:18;;;;;;;3.55;1.50;;;28.90;62.00;;;;;;5080875;28;20029;-78
2022/08/05 09:03:46;;;;;;;1.90;0.80;;;28.90;61.30;;;;;;5090530;28;20077;-78
2022/08/05 09:06:12;;;;;;;3.13;1.27;;;29.00;61.60;;;;;;5079644;28;20028;-77
2022/08/05 09:08:38;;;;;;;2.78;1.45;;;29.10;61.80;;;;;;5086910;28;20385;-77
2022/08/05 09:11:03;;;;;;;2.40;0.98;;;29.10;62.00;;;;;;5085500;28;20111;-78
2022/08/05 09:13:32;;;;;;;2.88;1.20;;;29.10;61.90;;;;;;5078095;28;20032;-78
2022/08/05 09:15:58;;;;;;;1.33;1.13;;;29.00;61.60;;;;;;5090188;28;20031;-78
2022/08/05 09:18:24;;;;;;;2.30;1.17;;;28.80;61.30;;;;;;5085524;28;20066;-78
2022/08/05 09:20:50;;;;;;;1.70;1.30;;;28.70;61.80;;;;;;5085358;28;20489;-78
2022/08/05 09:23:19;;;;;;;1.35;1.20;;;28.70;62.20;;;;;;5073453;28;20032;-78
2022/08/05 09:25:47;;;;;;;1.73;1.15;;;28.70;62.60;;;;;;5090144;28;20488;-78
2022/08/05 09:28:22;;;;;;;1.80;1.30;;;28.70;62.70;;;;;;5078079;28;20469;-77
2022/08/05 09:31:04;;;;;;;2.60;1.25;;;28.60;63.20;;;;;;5084480;28;20069;-77
2022/08/05 09:33:31;;;;;;;2.58;1.27;;;28.60;63.70;;;;;;5072137;28;20028;-77
2022/08/05 09:36:04;;;;;;;2.25;1.25;;;28.70;63.60;;;;;;5075349;28;20020;-78
2022/08/05 09:38:31;;;;;;;1.85;1.23;;;28.70;62.90;;;;;;5085717;28;20085;-77
2022/08/05 09:41:08;;;;;;;2.53;1.35;;;28.70;62.60;;;;;;5083819;28;20025;-78
2022/08/05 09:43:36;;;;;;;2.17;1.20;;;28.70;63.20;;;;;;5092030;28;20388;-77
2022/08/05 09:46:05;;;;;;;2.88;1.10;;;28.80;63.10;;;;;;5076654;28;20044;-76
2022/08/05 09:48:33;;;;;;;2.25;1.42;;;28.90;62.70;;;;;;5092688;28;20024;-76
2022/08/05 09:51:01;;;;;;;1.73;1.25;;;28.90;62.50;;;;;;5083591;28;20020;-77
2022/08/05 09:53:29;;;;;;;1.20;1.10;;;28.80;62.80;;;;;;5087063;28;20044;-76
2022/08/05 09:55:58;;;;;;;3.42;1.20;;;28.70;63.00;;;;;;5077501;28;20025;-76
2022/08/05 09:58:24;;;;;;;2.13;1.30;;;28.80;63.80;;;;;;5085676;28;20040;-76
2022/08/05 10:00:55;;;;;;;2.47;1.10;;;28.80;61.60;;;;;;5073834;28;20057;-76
2022/08/05 10:03:21;;;;;;;2.88;1.52;;;28.80;60.60;;;;;;5086350;28;20024;-78
2022/08/05 10:06:00;;;;;;;2.83;1.20;;;28.80;61.30;;;;;;5077250;28;20024;-77
2022/08/05 10:08:25;;;;;;;1.40;1.25;;;28.90;61.00;;;;;;5085356;28;20020;-76
2022/08/05 10:10:51;;;;;;;3.63;1.50;;;28.80;61.50;;;;;;5083661;28;20423;-76
2022/08/05 10:13:36;;;;;;;3.38;1.40;;;28.90;61.70;;;;;;5080324;28;20083;-76
2022/08/05 10:16:03;;;;;;;1.77;1.30;;;28.90;62.00;;;;;;5089002;28;20553;-76
2022/08/05 10:18:31;;;;;;;1.42;1.20;;;28.90;61.60;;;;;;5086149;28;20048;-77
2022/08/05 10:21:06;;;;;;;1.20;1.10;;;28.90;61.80;;;;;;5081698;28;20024;-77
2022/08/05 10:23:34;;;;;;;1.52;1.40;;;28.90;62.20;;;;;;5088623;28;20518;-76
2022/08/05 10:26:03;;;;;;;2.13;1.20;;;28.90;62.10;;;;;;5075846;28;20031;-76
2022/08/05 10:28:30;;;;;;;1.80;1.30;;;28.90;62.40;;;;;;5085346;28;20123;-76
2022/08/05 10:30:57;;;;;;;3.75;1.90;;;28.80;62.10;;;;;;5082742;28;20025;-77
2022/08/05 10:33:25;;;;;;;1.67;1.52;;;28.80;62.00;;;;;;5078571;28;20496;-77
2022/08/05 10:35:52;;;;;;;1.48;1.30;;;28.80;62.20;;;;;;5088936;28;20085;-76
2022/08/05 10:38:25;;;;;;;2.38;1.33;;;28.90;62.20;;;;;;5078228;28;20020;-76
2022/08/05 10:40:50;;;;;;;3.92;1.52;;;28.90;62.20;;;;;;5082226;28;20024;-76
2022/08/05 10:43:40;;;;;;;1.60;1.40;;;29.00;62.80;;;;;;5072694;28;20081;-76
2022/08/05 10:46:07;;;;;;;1.80;1.30;;;29.00;62.70;;;;;;5092223;28;20024;-76
2022/08/05 10:48:37;;;;;;;1.30;1.20;;;29.00;62.70;;;;;;5091625;28;20040;-76
2022/08/05 10:51:07;;;;;;;2.17;1.35;;;29.10;62.60;;;;;;5092150;28;20024;-76
2022/08/05 10:53:37;;;;;;;2.40;1.30;;;29.10;62.90;;;;;;5075679;28;20041;-76
2022/08/05 10:56:06;;;;;;;1.80;1.52;;;29.10;63.10;;;;;;5089500;28;20037;-76
2022/08/05 10:58:33;;;;;;;1.95;1.50;;;29.20;62.90;;;;;;5078197;28;20048;-76
2022/08/05 11:00:59;;;;;;;1.38;1.27;;;29.30;62.50;;;;;;5081781;28;20096;-76
2022/08/05 11:03:24;;;;;;;2.28;1.80;;;29.40;62.50;;;;;;5085152;28;20468;-76
2022/08/05 11:06:04;;;;;;;3.65;1.40;;;29.40;62.40;;;;;;5075099;28;20025;-77
2022/08/05 11:08:30;;;;;;;1.80;1.10;;;29.60;62.00;;;;;;5085453;28;20024;-76
2022/08/05 11:11:27;;;;;;;3.25;1.50;;;29.70;61.70;;;;;;5082178;28;20076;-76
2022/08/05 11:13:52;;;;;;;1.33;1.10;;;29.70;61.00;;;;;;5075923;28;20032;-77
2022/08/05 11:16:22;;;;;;;2.45;1.20;;;29.80;60.80;;;;;;5086428;28;20470;-76
2022/08/05 11:19:07;;;;;;;2.00;1.20;;;29.70;60.90;;;;;;5086133;28;20035;-76
2022/08/05 11:21:33;;;;;;;1.20;1.10;;;29.70;60.80;;;;;;5073925;28;20191;-76
2022/08/05 11:24:07;;;;;;;3.08;1.30;;;29.80;60.40;;;;;;5090681;28;20480;-76
2022/08/05 11:26:33;;;;;;;1.77;1.23;;;29.80;59.90;;;;;;5083964;28;20568;-76
2022/08/05 11:29:01;;;;;;;2.22;1.10;;;29.80;60.20;;;;;;5082419;28;20162;-77
2022/08/05 11:31:31;;;;;;;1.70;1.25;;;30.00;59.70;;;;;;5076131;28;20036;-76
2022/08/05 11:34:00;;;;;;;1.13;1.00;;;30.10;58.90;;;;;;5088852;28;20036;-76
2022/08/05 11:36:48;;;;;;;3.10;1.17;;;30.20;59.10;;;;;;5076940;28;20024;-76
2022/08/05 11:39:15;;;;;;;3.00;1.30;;;30.20;58.50;;;;;;5078332;28;20465;-77
2022/08/05 11:41:48;;;;;;;2.35;1.10;;;30.30;58.60;;;;;;5086381;28;20032;-77
2022/08/05 11:44:14;;;;;;;1.60;1.20;;;30.30;58.60;;;;;;5087875;28;20028;-76
2022/08/05 11:46:45;;;;;;;1.38;1.10;;;30.30;58.60;;;;;;5080525;28;20234;-76
2022/08/05 11:49:12;;;;;;;;;;;30.40;58.60;;;;;;5091593;28;20027;-77
2022/08/05 11:51:44;;;;;;;4.68;1.13;;;30.50;58.70;;;;;;5075611;28;19905;-76
2022/08/05 11:54:27;;;;;;;5.00;1.27;;;30.50;58.30;;;;;;5087185;28;20044;-77
2022/08/05 11:56:54;;;;;;;2.15;1.30;;;30.70;58.70;;;;;;5080812;28;20085;-77
2022/08/05 11:59:22;;;;;;;2.47;1.20;;;30.70;58.80;;;;;;5077005;28;20463;-79
2022/08/05 12:01:55;;;;;;;2.63;1.20;;;30.90;58.70;;;;;;5087278;28;20461;-78
2022/08/05 12:04:21;;;;;;;3.28;1.10;;;31.10;58.30;;;;;;5077520;28;20024;-77
2022/08/05 12:06:48;;;;;;;1.70;1.35;;;31.20;58.00;;;;;;5082823;28;20046;-78
2022/08/05 12:09:19;;;;;;;1.67;1.08;;;31.30;58.10;;;;;;5083600;28;20035;-77
2022/08/05 12:11:46;;;;;;;1.02;0.93;;;31.30;58.30;;;;;;5090005;28;20119;-78
2022/08/05 12:14:12;;;;;;;3.45;1.40;;;31.40;57.90;;;;;;5075769;28;20028;-77
2022/08/05 12:16:39;;;;;;;1.85;1.27;;;31.30;57.80;;;;;;5087537;28;20033;-77
2022/08/05 12:19:06;;;;;;;1.42;1.20;;;31.30;57.90;;;;;;5092569;28;20031;-77
2022/08/05 12:21:45;;;;;;;1.88;1.40;;;31.40;58.10;;;;;;5078218;28;20035;-77
2022/08/05 12:24:14;;;;;;;2.15;1.20;;;31.50;57.40;;;;;;5079320;28;20071;-77
2022/08/05 12:26:51;;;;;;;2.10;1.38;;;31.40;57.40;;;;;;5086400;28;20016;-78
2022/08/05 12:29:22;;;;;;;2.22;1.17;;;31.50;57.50;;;;;;5088593;28;20065;-78
2022/08/05 12:31:53;;;;;;;2.25;1.60;;;31.60;57.00;;;;;;5076769;28;20054;-77
2022/08/05 12:34:27;;;;;;;1.48;1.10;;;31.60;57.00;;;;;;5080038;28;20106;-77
2022/08/05 12:36:54;;;;;;;3.95;1.23;;;31.70;56.80;;;;;;5085593;28;20028;-77
2022/08/05 12:39:22;;;;;;;1.67;1.20;;;31.70;56.60;;;;;;5095631;28;20536;-80
2022/08/05 12:41:48;;;;;;;1.83;1.30;;;31.70;56.60;;;;;;5078492;28;20462;-78
2022/08/05 12:44:15;;;;;;;1.80;1.20;;;31.80;56.60;;;;;;5079266;28;20038;-77
2022/08/05 12:46:42;;;;;;;2.38;1.50;;;31.90;56.80;;;;;;5094166;28;20038;-77
2022/08/05 12:49:10;;;;;;;2.83;1.33;;;31.90;56.40;;;;;;5095673;28;20458;-77
2022/08/05 12:51:56;;;;;;;1.80;1.40;;;31.90;56.40;;;;;;5077952;28;20078;-77
2022/08/05 12:54:26;;;;;;;1.60;1.40;;;32.00;56.20;;;;;;5079113;28;20040;-77
2022/08/05 12:56:54;;;;;;;2.42;1.70;;;32.00;56.60;;;;;;5084005;28;20485;-77
2022/08/05 12:59:42;;;;;;;1.52;1.20;;;31.90;57.10;;;;;;5087691;28;20039;-77
2022/08/05 13:02:10;;;;;;;2.38;1.38;;;31.80;57.60;;;;;;5093580;28;20035;-78
2022/08/05 13:04:42;;;;;;;5.15;1.80;;;31.80;58.20;;;;;;5085913;28;20028;-77
2022/08/05 13:07:11;;;;;;;1.63;1.50;;;31.80;58.60;;;;;;5086760;28;20035;-77
2022/08/05 13:09:39;;;;;;;3.33;1.67;;;31.90;58.80;;;;;;5076615;28;20533;-77
2022/08/05 13:12:07;;;;;;;3.72;1.70;;;31.90;58.80;;;;;;5073990;28;20032;-77